createdAt,value
2023-01-11T00:01:19.741Z,95520.72
2023-01-11T00:03:46.264Z,95515.16
2023-01-11T00:06:13.180Z,95491.09
2023-01-11T00:08:40.177Z,95495.41
2023-01-11T00:11:12.527Z,95502.19
2023-01-11T00:13:38.931Z,95502.69
2023-01-11T00:16:06.070Z,95492.19
2023-01-11T00:18:32.488Z,95499.47
2023-01-11T00:21:00.210Z,95506.25
2023-01-11T00:23:26.569Z,95499.66
2023-01-11T00:25:53.575Z,95499.00
2023-01-11T00:28:19.917Z,95498.66
2023-01-11T00:30:48.203Z,95493.84
2023-01-11T00:33:14.836Z,95500.16
2023-01-11T00:35:41.259Z,95492.28
2023-01-11T00:38:07.658Z,95488.31
2023-01-11T00:40:34.044Z,95481.13
2023-01-11T00:43:19.497Z,95478.59
2023-01-11T00:46:15.397Z,95476.34
2023-01-11T00:48:41.805Z,95471.50
2023-01-11T00:51:08.184Z,95473.09
2023-01-11T00:53:34.556Z,95475.75
2023-01-11T00:56:02.002Z,95475.22
2023-01-11T00:58:29.047Z,95479.09
2023-01-11T01:00:55.428Z,95477.88
2023-01-11T01:03:21.803Z,95478.81
2023-01-11T01:05:48.183Z,95483.06
2023-01-11T01:08:14.695Z,95485.34
2023-01-11T01:10:41.107Z,95486.66
2023-01-11T01:13:28.522Z,95489.19
2023-01-11T01:15:57.336Z,95490.53
2023-01-11T01:18:23.754Z,95493.59
2023-01-11T01:20:50.585Z,95488.78
2023-01-11T01:23:16.985Z,95493.84
2023-01-11T01:25:43.383Z,95489.59
2023-01-11T01:28:09.793Z,95491.19
2023-01-11T01:30:36.140Z,95493.81
2023-01-11T01:33:03.164Z,95490.25
2023-01-11T01:35:29.559Z,95479.72
2023-01-11T01:37:55.931Z,95492.09
2023-01-11T01:40:22.306Z,95493.22
2023-01-11T01:42:52.927Z,95485.78
2023-01-11T01:45:23.956Z,95486.97
2023-01-11T01:47:54.471Z,95481.81
2023-01-11T01:50:25.028Z,95475.09
2023-01-11T01:52:55.953Z,95470.56
2023-01-11T01:55:26.581Z,95463.41
2023-01-11T01:57:54.652Z,95469.03
2023-01-11T02:00:23.484Z,95453.56
2023-01-11T02:02:50.575Z,95453.16
2023-01-11T02:05:17.717Z,95449.94
2023-01-11T02:07:46.394Z,95435.19
2023-01-11T02:10:16.018Z,95438.31
2023-01-11T02:12:48.401Z,95430.63
2023-01-11T02:15:17.105Z,95424.59
2023-01-11T02:17:43.462Z,95429.91
2023-01-11T02:20:23.172Z,95431.22
2023-01-11T02:23:25.097Z,95431.09
2023-01-11T02:26:40.156Z,95426.00
2023-01-11T02:29:13.553Z,95420.22
2023-01-11T02:31:47.059Z,95413.38
2023-01-11T02:34:28.876Z,95406.31
2023-01-11T02:37:05.950Z,95407.59
2023-01-11T02:39:44.462Z,95396.31
2023-01-11T02:42:37.189Z,95396.75
2023-01-11T02:45:15.114Z,95408.22
2023-01-11T02:47:47.675Z,95400.97
2023-01-11T02:50:21.431Z,95397.66
2023-01-11T02:52:53.967Z,95388.97
2023-01-11T02:55:36.032Z,95387.75
2023-01-11T02:58:05.813Z,95375.50
2023-01-11T03:00:33.357Z,95382.00
2023-01-11T03:03:08.380Z,95378.97
2023-01-11T03:05:37.948Z,95389.19
2023-01-11T03:08:25.031Z,95375.56
2023-01-11T03:11:01.246Z,95376.00
2023-01-11T03:13:37.670Z,95365.47
2023-01-11T03:16:16.424Z,95366.13
2023-01-11T03:18:52.323Z,95365.03
2023-01-11T03:21:36.720Z,95357.00
2023-01-11T03:24:11.859Z,95350.84
2023-01-11T03:26:49.416Z,95346.06
2023-01-11T03:29:22.556Z,95349.69
2023-01-11T03:31:54.174Z,95339.47
2023-01-11T03:34:31.364Z,95334.41
2023-01-11T03:37:03.443Z,95338.47
2023-01-11T03:39:36.943Z,95339.66
2023-01-11T03:42:07.673Z,95336.63
2023-01-11T03:44:39.383Z,95328.97
2023-01-11T03:47:10.817Z,95324.03
2023-01-11T03:49:41.920Z,95316.06
2023-01-11T03:52:11.955Z,95311.25
2023-01-11T03:54:39.680Z,95311.59
2023-01-11T03:57:12.215Z,95308.25
2023-01-11T03:59:39.790Z,95306.09
2023-01-11T04:02:15.238Z,95299.69
2023-01-11T04:04:41.626Z,95298.75
2023-01-11T04:07:07.982Z,95297.34
2023-01-11T04:09:34.900Z,95296.84
2023-01-11T04:12:02.391Z,95302.25
2023-01-11T04:14:28.788Z,95303.56
2023-01-11T04:16:55.177Z,95309.72
2023-01-11T04:19:22.349Z,95305.88
2023-01-11T04:21:48.728Z,95303.56
2023-01-11T04:24:15.183Z,95309.13
2023-01-11T04:26:41.543Z,95300.22
2023-01-11T04:29:09.009Z,95301.03
2023-01-11T04:31:35.484Z,95292.63
2023-01-11T04:34:01.934Z,95297.84
2023-01-11T04:36:30.748Z,95299.47
2023-01-11T04:38:57.484Z,95310.84
2023-01-11T04:41:42.985Z,95308.81
2023-01-11T04:44:09.780Z,95296.44
2023-01-11T04:46:36.127Z,95288.00
2023-01-11T04:49:02.559Z,95299.13
2023-01-11T04:51:29.659Z,95291.06
2023-01-11T04:53:56.018Z,95291.56
2023-01-11T04:56:22.452Z,95282.53
2023-01-11T04:58:48.901Z,95284.13
2023-01-11T05:01:17.066Z,95281.28
2023-01-11T05:03:44.528Z,95283.03
2023-01-11T05:06:12.116Z,95277.97
2023-01-11T05:08:39.511Z,95287.97
2023-01-11T05:11:07.896Z,95282.44
2023-01-11T05:13:43.323Z,95278.47
2023-01-11T05:16:11.461Z,95285.91
2023-01-11T05:18:39.733Z,95278.63
2023-01-11T05:21:06.388Z,95270.34
2023-01-11T05:23:35.391Z,95269.91
2023-01-11T05:26:03.978Z,95266.91
2023-01-11T05:28:30.373Z,95266.78
2023-01-11T05:30:56.727Z,95265.81
2023-01-11T05:33:23.165Z,95263.94
2023-01-11T05:35:54.439Z,95272.00
2023-01-11T05:38:20.878Z,95272.63
2023-01-11T05:40:53.862Z,95263.75
2023-01-11T05:43:20.941Z,95276.72
2023-01-11T05:45:47.094Z,95264.97
2023-01-11T05:48:13.454Z,95258.16
2023-01-11T05:50:39.827Z,95263.53
2023-01-11T05:53:06.712Z,95264.06
2023-01-11T05:55:33.140Z,95272.03
2023-01-11T05:57:59.577Z,95268.88
2023-01-11T06:00:26.806Z,95273.78
2023-01-11T06:02:53.241Z,95279.69
2023-01-11T06:05:19.656Z,95284.16
2023-01-11T06:07:46.023Z,95277.31
2023-01-11T06:10:12.401Z,95276.06
2023-01-11T06:12:38.817Z,95281.44
2023-01-11T06:15:06.187Z,95277.81
2023-01-11T06:17:33.282Z,95271.28
2023-01-11T06:20:00.784Z,95278.13
2023-01-11T06:22:27.150Z,95272.09
2023-01-11T06:24:53.519Z,95267.31
2023-01-11T06:27:20.540Z,95263.19
2023-01-11T06:29:47.071Z,95259.66
2023-01-11T06:32:13.489Z,95267.94
2023-01-11T06:34:40.503Z,95261.59
2023-01-11T06:37:06.910Z,95261.59
2023-01-11T06:39:33.300Z,95261.75
2023-01-11T06:41:59.747Z,95250.16
2023-01-11T06:44:26.129Z,95265.41
2023-01-11T06:46:52.497Z,95268.91
2023-01-11T06:49:18.846Z,95264.13
2023-01-11T06:51:45.939Z,95268.91
2023-01-11T06:54:12.408Z,95273.47
2023-01-11T06:56:39.120Z,95270.00
2023-01-11T06:59:05.695Z,95269.81
2023-01-11T07:01:32.138Z,95271.09
2023-01-11T07:03:58.556Z,95277.78
2023-01-11T07:06:24.911Z,95274.28
2023-01-11T07:08:51.934Z,95267.94
2023-01-11T07:11:18.348Z,95262.69
2023-01-11T07:13:44.725Z,95273.16
2023-01-11T07:16:11.157Z,95268.56
2023-01-11T07:18:37.669Z,95269.34
2023-01-11T07:21:04.151Z,95270.94
2023-01-11T07:23:30.538Z,95272.69
2023-01-11T07:25:57.602Z,95267.75
2023-01-11T07:28:23.990Z,95271.88
2023-01-11T07:30:58.596Z,95263.00
2023-01-11T07:33:26.302Z,95272.88
2023-01-11T07:35:53.447Z,95259.50
2023-01-11T07:38:19.845Z,95258.72
2023-01-11T07:40:46.414Z,95269.69
2023-01-11T07:43:18.620Z,95262.53
2023-01-11T07:45:48.423Z,95271.75
2023-01-11T07:48:19.895Z,95274.31
2023-01-11T07:50:47.771Z,95268.56
2023-01-11T07:53:14.212Z,95267.78
2023-01-11T07:55:41.108Z,95282.09
2023-01-11T07:58:10.266Z,95269.03
2023-01-11T08:00:37.389Z,95271.28
2023-01-11T08:03:03.979Z,95268.25
2023-01-11T08:05:30.413Z,95266.69
2023-01-11T08:07:56.942Z,95264.91
2023-01-11T08:10:23.679Z,95261.56
2023-01-11T08:13:08.399Z,95261.22
2023-01-11T08:15:35.885Z,95257.59
2023-01-11T08:18:04.960Z,95261.38
2023-01-11T08:20:31.419Z,95264.25
2023-01-11T08:22:57.836Z,95266.97
2023-01-11T08:25:24.434Z,95260.06
2023-01-11T08:27:50.925Z,95255.50
2023-01-11T08:30:18.114Z,95262.81
2023-01-11T08:32:44.627Z,95251.13
2023-01-11T08:35:12.429Z,95260.59
2023-01-11T08:37:38.821Z,95257.94
2023-01-11T08:40:06.417Z,95254.28
2023-01-11T08:42:33.351Z,95251.41
2023-01-11T08:44:59.805Z,95246.84
2023-01-11T08:47:26.201Z,95244.38
2023-01-11T08:49:52.586Z,95241.19
2023-01-11T08:52:20.976Z,95232.84
2023-01-11T08:54:47.355Z,95233.91
2023-01-11T08:57:13.817Z,95226.25
2023-01-11T08:59:40.220Z,95223.44
2023-01-11T09:02:06.708Z,95227.66
2023-01-11T09:04:33.546Z,95233.91
2023-01-11T09:07:00.241Z,95222.47
2023-01-11T09:09:27.579Z,95224.91
2023-01-11T09:11:55.664Z,95221.22
2023-01-11T09:14:23.791Z,95227.75
2023-01-11T09:16:50.515Z,95216.44
2023-01-11T09:19:17.094Z,95218.59
2023-01-11T09:21:43.838Z,95219.97
2023-01-11T09:24:10.263Z,95219.25
2023-01-11T09:26:37.665Z,95224.44
2023-01-11T09:29:04.432Z,95217.84
2023-01-11T09:31:30.914Z,95217.72
2023-01-11T09:33:57.332Z,95219.44
2023-01-11T09:40:45.444Z,95218.03
2023-01-11T09:43:15.439Z,95217.00
2023-01-11T09:45:46.043Z,95203.63
2023-01-11T09:48:25.958Z,95200.09
2023-01-11T09:50:52.701Z,95205.66
2023-01-11T09:53:27.314Z,95204.75
2023-01-11T09:55:57.341Z,95200.81
2023-01-11T09:58:46.045Z,95205.63
2023-01-11T10:01:17.172Z,95202.81
2023-01-11T10:04:15.180Z,95206.31
2023-01-11T10:06:51.783Z,95201.09
2023-01-11T10:18:37.348Z,95209.47
2023-01-11T10:18:49.417Z,95210.00
2023-01-11T10:21:18.892Z,95207.00
2023-01-11T10:23:49.845Z,95195.25
2023-01-11T10:26:26.654Z,95202.56
2023-01-11T10:29:16.575Z,95197.88
2023-01-11T10:32:08.895Z,95195.56
2023-01-11T10:34:59.105Z,95193.84
2023-01-11T10:37:47.418Z,95194.31
2023-01-11T10:40:36.799Z,95194.69
2023-01-11T10:43:12.132Z,95202.72
2023-01-11T10:45:43.735Z,95197.63
2023-01-11T10:48:18.186Z,95189.28
2023-01-11T10:50:53.213Z,95187.94
2023-01-11T10:53:25.565Z,95182.25
2023-01-11T10:56:01.381Z,95171.03
2023-01-11T10:58:47.365Z,95174.66
2023-01-11T11:01:28.061Z,95168.19
2023-01-11T11:04:14.069Z,95170.47
2023-01-11T11:06:51.002Z,95161.34
2023-01-11T11:09:25.670Z,95159.22
2023-01-11T11:11:58.203Z,95163.41
2023-01-11T11:14:33.425Z,95154.38
2023-01-11T11:17:12.978Z,95151.16
2023-01-11T11:19:41.843Z,95157.13
2023-01-11T11:22:10.655Z,95150.44
2023-01-11T11:24:42.436Z,95146.31
2023-01-11T11:27:18.648Z,95154.38
2023-01-11T11:29:50.459Z,95141.75
2023-01-11T11:32:27.431Z,95151.41
2023-01-11T11:34:54.554Z,95143.16
2023-01-11T11:37:24.836Z,95143.16
2023-01-11T11:39:52.504Z,95131.53
2023-01-11T11:42:20.845Z,95134.25
2023-01-11T11:45:12.697Z,95126.38
2023-01-11T11:47:39.146Z,95127.56
2023-01-11T11:50:43.139Z,95112.56
2023-01-11T11:53:25.096Z,95112.94
2023-01-11T11:55:52.779Z,95099.75
2023-01-11T11:58:23.573Z,95111.16
2023-01-11T12:00:52.012Z,95107.44
2023-01-11T12:03:21.375Z,95100.31
2023-01-11T12:05:55.272Z,95098.75
2023-01-11T12:08:23.895Z,95085.31
2023-01-11T12:10:56.684Z,95103.47
2023-01-11T12:13:29.235Z,95095.00
2023-01-11T12:15:56.833Z,95092.44
2023-01-11T12:18:25.026Z,95097.16
2023-01-11T12:20:52.705Z,95096.78
2023-01-11T12:23:23.320Z,95096.97
2023-01-11T12:26:12.867Z,95095.22
2023-01-11T12:28:58.741Z,95082.56
2023-01-11T12:31:31.545Z,95084.94
2023-01-11T12:34:07.732Z,95070.75
2023-01-11T12:36:44.365Z,95078.84
2023-01-11T12:39:21.098Z,95070.53
2023-01-11T12:42:04.382Z,95073.69
2023-01-11T12:44:57.568Z,95072.69
2023-01-11T12:47:56.443Z,95076.84
2023-01-11T12:50:26.455Z,95078.22
2023-01-11T12:53:09.173Z,95068.34
2023-01-11T12:55:55.750Z,95063.84
2023-01-11T12:58:30.888Z,95067.94
2023-01-11T13:01:19.113Z,95063.25
2023-01-11T13:04:20.069Z,95062.44
2023-01-11T13:06:55.913Z,95058.91
2023-01-11T13:09:37.388Z,95052.97
2023-01-11T13:12:11.668Z,95055.34
2023-01-11T13:14:54.354Z,95056.34
2023-01-11T13:17:27.900Z,95058.28
2023-01-11T13:20:06.728Z,95061.44
2023-01-11T13:22:38.007Z,95055.94
2023-01-11T13:25:16.659Z,95046.06
2023-01-11T13:27:44.049Z,95050.81
2023-01-11T13:30:14.069Z,95044.88
2023-01-11T13:32:45.307Z,95057.09
2023-01-11T13:35:16.883Z,95045.88
2023-01-11T13:37:50.723Z,95056.53
2023-01-11T13:40:22.243Z,95042.13
2023-01-11T13:42:53.298Z,95054.56
2023-01-11T13:45:25.789Z,95060.28
2023-01-11T13:47:56.151Z,95063.03
2023-01-11T13:50:27.762Z,95071.91
2023-01-11T13:53:03.630Z,95068.72
2023-01-11T13:55:40.225Z,95071.88
2023-01-11T13:58:13.494Z,95097.94
2023-01-11T14:00:43.212Z,95077.78
2023-01-11T14:03:22.293Z,95083.53
2023-01-11T14:05:58.059Z,95082.94
2023-01-11T14:08:46.407Z,95076.06
2023-01-11T14:11:22.079Z,95077.63
2023-01-11T14:14:30.647Z,95086.91
2023-01-11T14:17:17.357Z,95082.56
2023-01-11T14:19:52.622Z,95097.47
2023-01-11T14:22:26.610Z,95100.00
2023-01-11T14:24:59.158Z,95098.69
2023-01-11T14:27:47.084Z,95096.06
2023-01-11T14:30:28.544Z,95097.19
2023-01-11T14:33:39.533Z,95091.41
2023-01-11T14:36:45.058Z,95090.34
2023-01-11T14:39:24.678Z,95105.44
2023-01-11T14:42:04.276Z,95089.22
2023-01-11T14:44:56.177Z,95102.56
2023-01-11T14:47:47.057Z,95083.84
2023-01-11T14:50:23.356Z,95093.16
2023-01-11T14:52:53.201Z,95089.19
2023-01-11T14:55:22.795Z,95086.38
2023-01-11T14:58:04.961Z,95094.06
2023-01-11T15:01:04.684Z,95088.09
2023-01-11T15:03:41.940Z,95086.72
2023-01-11T15:06:13.951Z,95086.72
2023-01-11T15:08:46.100Z,95080.94
2023-01-11T15:11:23.722Z,95089.94
2023-01-11T15:13:55.327Z,95099.38
2023-01-11T15:16:43.420Z,95095.03
2023-01-11T15:19:23.312Z,95113.69
2023-01-11T15:21:52.583Z,95096.69
2023-01-11T15:24:23.591Z,95088.94
2023-01-11T15:26:50.363Z,95104.47
2023-01-11T15:29:22.334Z,95103.31
2023-01-11T15:32:07.167Z,95101.19
2023-01-11T15:34:42.100Z,95110.06
2023-01-11T15:37:31.192Z,95117.91
2023-01-11T15:40:01.419Z,95127.50
2023-01-11T15:43:04.061Z,95120.66
2023-01-11T15:46:29.780Z,95125.75
2023-01-11T15:49:17.813Z,95128.31
2023-01-11T15:52:17.473Z,95132.09
2023-01-11T15:55:17.326Z,95147.16
2023-01-11T15:58:11.331Z,95138.34
2023-01-11T16:01:07.446Z,95144.19
2023-01-11T16:03:53.326Z,95153.34
2023-01-11T16:06:32.069Z,95160.22
2023-01-11T16:09:08.372Z,95159.00
2023-01-11T16:11:44.232Z,95149.56
2023-01-11T16:14:34.281Z,95163.66
2023-01-11T16:17:02.507Z,95161.44
2023-01-11T16:19:33.473Z,95164.38
2023-01-11T16:22:04.781Z,95180.56
2023-01-11T16:24:38.376Z,95178.63
2023-01-11T16:27:06.519Z,95178.88
2023-01-11T16:29:36.512Z,95180.81
2023-01-11T16:32:06.104Z,95184.16
2023-01-11T16:34:40.580Z,95182.13
2023-01-11T16:37:20.923Z,95174.75
2023-01-11T16:39:49.626Z,95182.69
2023-01-11T16:42:16.000Z,95188.31
2023-01-11T16:44:49.481Z,95187.84
2023-01-11T16:47:17.750Z,95192.78
2023-01-11T16:49:48.286Z,95199.63
2023-01-11T16:52:38.074Z,95200.16
2023-01-11T16:55:20.939Z,95188.47
2023-01-11T16:57:51.473Z,95199.09
2023-01-11T17:00:34.545Z,95201.00
2023-01-11T17:03:04.957Z,95207.91
2023-01-11T17:05:31.673Z,95209.47
2023-01-11T17:07:58.821Z,95211.59
2023-01-11T17:10:27.572Z,95211.75
2023-01-11T17:13:36.488Z,95211.03
2023-01-11T17:16:09.431Z,95218.63
2023-01-11T17:18:38.622Z,95203.94
2023-01-11T17:21:06.580Z,95207.00
2023-01-11T17:23:33.732Z,95220.19
2023-01-11T17:26:00.529Z,95226.34
2023-01-11T17:28:27.003Z,95218.97
2023-01-11T17:30:53.911Z,95232.31
2023-01-11T17:33:28.943Z,95232.50
2023-01-11T17:35:55.987Z,95229.94
2023-01-11T17:38:25.133Z,95250.97
2023-01-11T17:40:55.468Z,95237.16
2023-01-11T17:43:42.269Z,95227.00
2023-01-11T17:46:15.848Z,95246.66
2023-01-11T17:48:52.622Z,95257.50
2023-01-11T17:51:24.315Z,95264.34
2023-01-11T17:53:51.312Z,95261.19
2023-01-11T17:56:37.356Z,95269.00
2023-01-11T17:59:16.280Z,95270.75
2023-01-11T18:01:46.881Z,95286.22
2023-01-11T18:04:19.138Z,95273.81
2023-01-11T18:06:47.734Z,95274.16
2023-01-11T18:09:22.562Z,95292.00
2023-01-11T18:11:51.751Z,95285.47
2023-01-11T18:14:21.854Z,95315.28
2023-01-11T18:16:56.981Z,95318.75
2023-01-11T18:19:31.032Z,95311.41
2023-01-11T18:21:57.523Z,95324.09
2023-01-11T18:24:52.168Z,95326.03
2023-01-11T18:27:27.844Z,95334.34
2023-01-11T18:29:56.699Z,95329.75
2023-01-11T18:32:23.354Z,95341.06
2023-01-11T18:34:54.110Z,95340.31
2023-01-11T18:37:21.347Z,95336.16
2023-01-11T18:39:50.177Z,95336.34
2023-01-11T18:42:19.308Z,95344.28
2023-01-11T18:44:50.572Z,95334.09
2023-01-11T18:47:22.439Z,95349.06
2023-01-11T18:49:49.771Z,95337.97
2023-01-11T18:52:16.703Z,95366.63
2023-01-11T18:54:43.635Z,95358.03
2023-01-11T18:57:10.631Z,95368.53
2023-01-11T18:59:37.092Z,95369.34
2023-01-11T19:02:17.375Z,95378.88
2023-01-11T19:04:44.531Z,95359.94
2023-01-11T19:07:11.307Z,95353.25
2023-01-11T19:09:38.156Z,95374.91
2023-01-11T19:12:05.336Z,95355.47
2023-01-11T19:14:31.982Z,95369.94
2023-01-11T19:16:58.741Z,95376.00
2023-01-11T19:19:25.868Z,95377.28
2023-01-11T19:21:52.335Z,95377.28
2023-01-11T19:24:18.795Z,95375.06
2023-01-11T19:26:45.619Z,95381.41
2023-01-11T19:29:15.771Z,95376.66
2023-01-11T19:31:43.923Z,95375.69
2023-01-11T19:34:11.193Z,95376.19
2023-01-11T19:36:38.396Z,95391.41
2023-01-11T19:39:05.787Z,95389.97
2023-01-11T19:41:52.269Z,95386.50
2023-01-11T19:44:19.013Z,95389.19
2023-01-11T19:46:46.882Z,95401.91
2023-01-11T19:49:13.516Z,95389.50
2023-01-11T19:51:40.656Z,95383.34
2023-01-11T19:54:08.637Z,95379.69
2023-01-11T19:56:35.189Z,95399.41
2023-01-11T19:59:01.700Z,95410.03
2023-01-11T20:01:28.368Z,95406.38
2023-01-11T20:03:54.828Z,95409.88
2023-01-11T20:06:21.316Z,95406.53
2023-01-11T20:08:50.407Z,95410.03
2023-01-11T20:11:18.021Z,95416.56
2023-01-11T20:13:49.815Z,95417.34
2023-01-11T20:16:18.566Z,95414.34
2023-01-11T20:18:51.154Z,95418.31
2023-01-11T20:21:17.737Z,95412.00
2023-01-11T20:23:44.295Z,95423.25
2023-01-11T20:26:14.321Z,95422.28
2023-01-11T20:28:41.434Z,95432.81
2023-01-11T20:31:08.173Z,95437.56
2023-01-11T20:33:34.797Z,95441.09
2023-01-11T20:36:01.239Z,95442.19
2023-01-11T20:38:28.202Z,95445.38
2023-01-11T20:40:54.736Z,95446.50
2023-01-11T20:43:21.872Z,95445.22
2023-01-11T20:45:54.877Z,95440.13
2023-01-11T20:48:21.489Z,95455.09
2023-01-11T20:50:47.953Z,95469.09
2023-01-11T20:53:14.570Z,95459.22
2023-01-11T20:55:41.031Z,95457.97
2023-01-11T20:58:07.728Z,95455.72
2023-01-11T21:00:34.991Z,95472.59
2023-01-11T21:03:01.467Z,95453.50
2023-01-11T21:05:27.965Z,95467.63
2023-01-11T21:07:54.392Z,95472.78
2023-01-11T21:10:20.818Z,95472.94
2023-01-11T21:12:49.563Z,95464.81
2023-01-11T21:15:16.710Z,95460.03
2023-01-11T21:17:43.792Z,95461.16
2023-01-11T21:20:11.028Z,95466.88
2023-01-11T21:22:37.454Z,95454.47
2023-01-11T21:25:04.516Z,95452.84
2023-01-11T21:27:30.943Z,95455.72
2023-01-11T21:29:57.373Z,95463.69
2023-01-11T21:32:23.958Z,95455.72
2023-01-11T21:34:51.117Z,95467.34
2023-01-11T21:37:19.090Z,95468.16
2023-01-11T21:39:45.521Z,95476.28
2023-01-11T21:42:11.966Z,95488.38
2023-01-11T21:44:38.371Z,95484.38
2023-01-11T21:47:06.286Z,95481.69
2023-01-11T21:49:33.044Z,95501.59
2023-01-11T21:52:00.452Z,95488.84
2023-01-11T21:54:26.854Z,95488.22
2023-01-11T21:56:53.399Z,95502.06
2023-01-11T21:59:20.081Z,95512.09
2023-01-11T22:01:48.413Z,95517.03
2023-01-11T22:04:16.983Z,95513.84
2023-01-11T22:06:46.530Z,95511.47
2023-01-11T22:09:13.724Z,95515.59
2023-01-11T22:11:40.174Z,95519.91
2023-01-11T22:14:07.857Z,95520.53
2023-01-11T22:16:35.351Z,95515.91
2023-01-11T22:19:02.481Z,95524.50
2023-01-11T22:21:29.095Z,95523.06
2023-01-11T22:23:58.360Z,95530.56
2023-01-11T22:26:29.170Z,95538.69
2023-01-11T22:29:11.439Z,95537.41
2023-01-11T22:31:39.228Z,95536.28
2023-01-11T22:34:06.148Z,95542.03
2023-01-11T22:36:32.631Z,95539.94
2023-01-11T22:38:59.088Z,95549.66
2023-01-11T22:41:26.193Z,95550.47
2023-01-11T22:43:53.818Z,95559.38
2023-01-11T22:46:22.508Z,95565.44
2023-01-11T22:48:50.163Z,95550.00
2023-01-11T22:51:18.762Z,95563.38
2023-01-11T22:53:47.155Z,95556.69
2023-01-11T22:56:15.143Z,95577.22
2023-01-11T22:58:42.309Z,95584.38
2023-01-11T23:01:11.668Z,95579.59
2023-01-11T23:03:38.528Z,95578.28
2023-01-11T23:06:05.511Z,95576.22
2023-01-11T23:08:35.185Z,95582.41
2023-01-11T23:11:01.637Z,95567.91
2023-01-11T23:13:45.996Z,95574.88
2023-01-11T23:16:14.983Z,95569.94
2023-01-11T23:18:41.542Z,95565.50
2023-01-11T23:21:08.348Z,95559.25
2023-01-11T23:23:34.828Z,95577.69
2023-01-11T23:26:01.369Z,95580.22
2023-01-11T23:28:29.958Z,95583.41
2023-01-11T23:30:56.435Z,95597.28
2023-01-11T23:33:23.855Z,95596.31
2023-01-11T23:35:55.417Z,95609.22
2023-01-11T23:38:21.846Z,95610.09
2023-01-11T23:41:06.362Z,95615.69
2023-01-11T23:43:35.890Z,95623.84
2023-01-11T23:46:23.817Z,95611.31
2023-01-11T23:48:50.681Z,95613.31
2023-01-11T23:51:17.063Z,95616.31
2023-01-11T23:53:43.538Z,95623.03
2023-01-11T23:56:09.941Z,95598.28
2023-01-11T23:58:36.365Z,95629.22
